Ana Sayfa
METAR-TAF:

METAR-TAF

Havaalanları :

Amasya Merzifon Havalimanı

Merzifon, Türkiye

Enlem: 40-51N, Boylam: 035-35E, yükseklik: 545 m

Güncel hava durumu gözlemi

Rapor saat 23:50 UTC de 29 dakika önce yapıldı.
Rüzgar batı/kuzeybatıdan 3 kt
Sıcaklık 0°C
Nem 93%
Basınç 1012 hPa
Görüş mesafesi 10 km veya daha fazla
4000 ft yükseklikte parçalı bulutlu

METAR: LTAP 232350Z 30003KT 9999 SCT040 00/M01 Q1012 NOSIG RMK RWY23 29001KT

Saat: 03:19 (00:19 UTC)

Tahmin

Rapor saat 22:40 UTC de 1 saat ve 39 dakika önce yapıldı.
Ayın 24'si saat 00 UTC'den ayın 24'si saat 24 UTC'ye kadar geçerli Tahmin
Rüzgar değişken yönden 2 kt
Görüş mesafesi 10 km veya daha fazla
4000 ft yükseklikte parçalı bulutlu
Geçici
ayın 24'si saat 21 UTC'den ayın 24'si saat 24 UTC'ye kadar
3000 ft yükseklikte parçalı çok bulutlu
9000 ft yükseklikte parçalı çok bulutlu
hafif yağmur

TAF: LTAP 232240Z 2400/2424 VRB02KT 9999 SCT040 TEMPO 2421/2424 -RA BKN030 BKN090

4.000'den fazla havaalanı için hava durumu gözlemleri ve tahminleri (METAR ve TAF raporları).

Kullanılabilir istasyonlar harita üzerinde sarı ve kırmızı noktalarla gösterilir.

İstasyonun adını görmek için fareyi noktanın üzerinde gezdirin.

Sonrasında hava gözlem ve tahminlerini görmek için tıklayın.

Haritayı değiştirmek için: yaklaştırmak için siyah artı işaretli yeşil düğmeye ve uzaklaştırmak için de eksi işaretli düğmeye hızla tıklayın; bitişik haritalar için yeşil okları kullanın.


METAR-TAF: